Time;durP1;ratioP1;P1;durP2;ratioP2;P2;SDS_P1;SDS_P2;PMS_P1;PMS_P2;Temp;Humidity;BMP_temperature;BMP_pressure;BME280_temperature;BME280_humidity;BME280_pressure;Samples;Min_cycle;Max_cycle;Signal;HPM_P1;HPM_P2
2022/11/12 00:00:05;;;;;;;7.40;3.90;;;;;;;;;;4801959;29;20507;-72
2022/11/12 00:02:53;;;;;;;6.82;4.32;;;;;;;;;;4800739;29;20055;-72
2022/11/12 00:05:43;;;;;;;10.25;4.82;;;;;;;;;;4803845;29;20047;-75
2022/11/12 00:08:31;;;;;;;10.52;4.55;;;;;;;;;;4803939;29;20059;-76
2022/11/12 00:11:19;;;;;;;10.05;3.80;;;;;;;;;;4801383;29;20046;-74
2022/11/12 00:14:07;;;;;;;9.70;3.72;;;;;;;;;;4793377;29;20059;-74
2022/11/12 00:16:56;;;;;;;7.90;3.50;;;;;;;;;;4792990;29;20406;-73
2022/11/12 00:19:44;;;;;;;6.47;3.55;;;;;;;;;;4794395;29;20055;-74
2022/11/12 00:22:32;;;;;;;7.68;4.05;;;;;;;;;;4792909;29;20055;-74
2022/11/12 00:25:21;;;;;;;5.07;3.33;;;;;;;;;;4782828;29;20051;-73
2022/11/12 00:28:10;;;;;;;11.27;3.70;;;;;;;;;;4786656;29;20079;-75
2022/11/12 00:30:58;;;;;;;13.52;4.05;;;;;;;;;;4785121;29;20055;-76
2022/11/12 00:33:47;;;;;;;7.13;3.90;;;;;;;;;;4782511;29;20059;-75
2022/11/12 00:36:35;;;;;;;10.23;4.65;;;;;;;;;;4786743;29;20063;-75
2022/11/12 00:39:24;;;;;;;7.28;4.30;;;;;;;;;;4783319;29;20047;-74
2022/11/12 00:42:12;;;;;;;11.57;4.47;;;;;;;;;;4781966;29;20051;-76
2022/11/12 00:45:00;;;;;;;;;;;;;;;;;;4786307;29;20056;-77
2022/11/12 00:47:48;;;;;;;10.52;4.20;;;;;;;;;;4783949;29;19921;-77
2022/11/12 00:50:36;;;;;;;9.70;4.72;;;;;;;;;;4781780;29;20039;-75
2022/11/12 00:53:25;;;;;;;12.30;4.75;;;;;;;;;;4785186;29;20067;-74
2022/11/12 00:56:13;;;;;;;10.20;4.47;;;;;;;;;;4783925;29;20051;-76
2022/11/12 00:59:01;;;;;;;10.48;4.53;;;;;;;;;;4780707;29;20051;-76
2022/11/12 01:01:49;;;;;;;5.13;4.00;;;;;;;;;;4784793;29;20047;-77
2022/11/12 01:04:38;;;;;;;9.15;4.38;;;;;;;;;;4782128;29;20055;-74
2022/11/12 01:07:27;;;;;;;8.85;3.67;;;;;;;;;;4780617;29;20055;-73
2022/11/12 01:10:15;;;;;;;6.63;3.33;;;;;;;;;;4791076;29;20055;-76
2022/11/12 01:13:04;;;;;;;7.60;4.25;;;;;;;;;;4789333;29;20047;-77
2022/11/12 01:15:52;;;;;;;6.32;4.25;;;;;;;;;;4791778;29;20059;-76
2022/11/12 01:18:41;;;;;;;10.52;4.43;;;;;;;;;;4791094;29;20051;-75
2022/11/12 01:21:31;;;;;;;7.60;3.30;;;;;;;;;;4789430;29;20051;-75
2022/11/12 01:24:19;;;;;;;8.73;4.13;;;;;;;;;;4792778;29;20043;-77
2022/11/12 01:27:07;;;;;;;7.85;3.95;;;;;;;;;;4789548;29;20411;-76
2022/11/12 01:29:55;;;;;;;7.80;3.97;;;;;;;;;;4789343;29;20055;-73
2022/11/12 01:32:44;;;;;;;6.93;3.95;;;;;;;;;;4792264;29;20067;-75
2022/11/12 01:35:33;;;;;;;9.70;3.70;;;;;;;;;;4789891;29;20415;-77
2022/11/12 01:38:21;;;;;;;6.60;3.28;;;;;;;;;;4788328;29;20051;-74
2022/11/12 01:41:32;;;;;;;7.57;3.78;;;;;;;;;;4791471;29;20048;-74
2022/11/12 01:44:28;;;;;;;6.85;3.72;;;;;;;;;;4788851;29;20055;-75
2022/11/12 01:47:24;;;;;;;6.43;4.20;;;;;;;;;;4791777;29;20051;-75
2022/11/12 01:50:29;;;;;;;8.48;4.22;;;;;;;;;;4789917;29;20051;-73
2022/11/12 01:53:19;;;;;;;8.15;4.15;;;;;;;;;;4787141;29;20387;-75
2022/11/12 01:56:08;;;;;;;10.32;4.32;;;;;;;;;;4790430;29;20170;-75
2022/11/12 01:59:22;;;;;;;10.20;4.35;;;;;;;;;;4788569;29;20071;-73
2022/11/12 02:02:11;;;;;;;7.88;4.47;;;;;;;;;;4791115;29;20407;-74
2022/11/12 02:05:01;;;;;;;6.28;3.55;;;;;;;;;;4789294;29;20404;-74
2022/11/12 02:07:51;;;;;;;9.02;4.20;;;;;;;;;;4787004;29;20059;-75
2022/11/12 02:10:40;;;;;;;10.00;3.70;;;;;;;;;;4790554;29;20044;-73
2022/11/12 02:16:40;;;;;;;4.82;3.65;;;;;;;;;;4791667;29;20059;-76
2022/11/12 02:19:28;;;;;;;5.70;4.25;;;;;;;;;;4788235;29;20051;-73
2022/11/12 02:22:16;;;;;;;9.27;4.32;;;;;;;;;;4784644;29;20063;-77
2022/11/12 02:25:05;;;;;;;8.73;4.78;;;;;;;;;;4788237;29;20051;-76
2022/11/12 02:27:55;;;;;;;6.13;3.95;;;;;;;;;;4784163;29;20059;-74
2022/11/12 02:30:47;;;;;;;9.85;4.80;;;;;;;;;;4784712;29;20114;-76
2022/11/12 02:33:35;;;;;;;7.22;4.90;;;;;;;;;;4787625;29;20051;-77
2022/11/12 02:36:23;;;;;;;7.82;4.38;;;;;;;;;;4785882;29;20055;-76
2022/11/12 02:39:11;;;;;;;12.50;4.50;;;;;;;;;;4784381;29;20055;-76
2022/11/12 02:42:00;;;;;;;9.07;4.68;;;;;;;;;;4787451;29;20055;-73
2022/11/12 02:44:47;;;;;;;;;;;;;;;;;;4787863;29;20507;-75
2022/11/12 02:47:36;;;;;;;7.53;3.95;;;;;;;;;;4795200;29;19925;-74
2022/11/12 02:50:24;;;;;;;9.52;5.30;;;;;;;;;;4792932;29;20047;-74
2022/11/12 02:53:12;;;;;;;7.32;4.32;;;;;;;;;;4788967;29;20416;-75
2022/11/12 02:56:01;;;;;;;7.93;4.82;;;;;;;;;;4789595;29;20051;-75
2022/11/12 02:58:49;;;;;;;8.80;5.28;;;;;;;;;;4787016;29;20055;-73
2022/11/12 03:01:37;;;;;;;;;;;;;;;;;;4785558;29;20055;-75
2022/11/12 03:04:25;;;;;;;8.10;4.30;;;;;;;;;;4788081;29;19921;-74
2022/11/12 03:07:14;;;;;;;6.68;4.35;;;;;;;;;;4786215;29;20052;-74
2022/11/12 03:10:02;;;;;;;11.07;4.28;;;;;;;;;;4784427;29;20420;-76
2022/11/12 03:12:52;;;;;;;8.93;4.35;;;;;;;;;;4788211;29;20055;-77
2022/11/12 03:15:40;;;;;;;9.23;4.82;;;;;;;;;;4785776;29;20521;-73
2022/11/12 03:18:28;;;;;;;11.60;5.05;;;;;;;;;;4784068;29;20582;-76
2022/11/12 03:21:17;;;;;;;7.90;4.10;;;;;;;;;;4787811;29;20059;-75
2022/11/12 03:24:05;;;;;;;7.45;4.30;;;;;;;;;;4785233;29;20043;-73
2022/11/12 03:26:54;;;;;;;9.00;5.10;;;;;;;;;;4783393;29;20425;-75
2022/11/12 03:29:42;;;;;;;;;;;;;;;;;;4786109;29;20055;-76
2022/11/12 03:32:30;;;;;;;11.27;4.90;;;;;;;;;;4785215;29;19925;-75
2022/11/12 03:35:18;;;;;;;10.32;4.50;;;;;;;;;;4782812;29;20059;-73
2022/11/12 03:38:07;;;;;;;7.40;4.35;;;;;;;;;;4786929;29;20056;-75
2022/11/12 03:40:55;;;;;;;7.47;5.00;;;;;;;;;;4785019;29;20055;-73
2022/11/12 03:43:44;;;;;;;7.70;4.80;;;;;;;;;;4783132;29;20063;-76
2022/11/12 03:46:32;;;;;;;7.80;5.30;;;;;;;;;;4787667;29;20048;-74
2022/11/12 03:49:20;;;;;;;13.07;5.75;;;;;;;;;;4784265;29;20055;-73
2022/11/12 03:52:07;;;;;;;;;;;;;;;;;;4788001;29;20051;-75
2022/11/12 03:54:56;;;;;;;8.75;4.00;;;;;;;;;;4784624;29;19921;-74
2022/11/12 03:57:46;;;;;;;8.45;5.10;;;;;;;;;;4783614;29;20055;-76
2022/11/12 04:00:34;;;;;;;8.40;4.80;;;;;;;;;;4787144;29;20055;-77
2022/11/12 04:03:22;;;;;;;9.80;5.22;;;;;;;;;;4785589;29;20047;-76
2022/11/12 04:09:17;;;;;;;7.70;5.25;;;;;;;;;;4786694;29;20047;-75
2022/11/12 04:13:26;;;;;;;11.23;5.88;;;;;;;;;;4784828;29;20059;-75
2022/11/12 04:15:13;;;;;;;10.73;5.95;;;;;;;;;;4787007;29;20047;-73
2022/11/12 04:26:22;;;;;;;9.70;4.22;;;;;;;;;;4785335;29;20059;-76
2022/11/12 04:27:29;;;;;;;9.00;4.03;;;;;;;;;;4782217;29;20051;-74
2022/11/12 04:30:18;;;;;;;7.85;4.45;;;;;;;;;;4785269;29;20059;-74
2022/11/12 04:33:08;;;;;;;7.13;4.80;;;;;;;;;;4782393;29;20055;-76
2022/11/12 04:35:57;;;;;;;8.15;5.10;;;;;;;;;;4787248;29;20047;-74
2022/11/12 04:38:45;;;;;;;7.70;5.15;;;;;;;;;;4785898;29;20051;-76
2022/11/12 04:44:58;;;;;;;8.02;5.28;;;;;;;;;;4785552;29;20055;-75
2022/11/12 04:47:46;;;;;;;6.07;4.15;;;;;;;;;;4782116;29;20419;-76
2022/11/12 04:50:36;;;;;;;10.55;5.05;;;;;;;;;;4786980;29;20047;-74
2022/11/12 04:53:25;;;;;;;7.15;4.65;;;;;;;;;;4784588;29;20058;-74
2022/11/12 04:56:13;;;;;;;7.68;3.75;;;;;;;;;;4783091;29;20059;-75
2022/11/12 04:59:02;;;;;;;9.70;4.72;;;;;;;;;;4786463;29;20618;-74
2022/11/12 05:01:51;;;;;;;11.30;4.43;;;;;;;;;;4784538;29;20415;-73
2022/11/12 05:04:39;;;;;;;7.93;3.47;;;;;;;;;;4782333;29;20071;-73
2022/11/12 05:07:26;;;;;;;;;;;;;;;;;;4786350;29;20051;-73
2022/11/12 05:10:15;;;;;;;13.52;5.10;;;;;;;;;;4784091;30;19921;-76
2022/11/12 05:13:04;;;;;;;8.18;5.28;;;;;;;;;;4782033;30;20044;-74
2022/11/12 05:15:52;;;;;;;5.57;4.55;;;;;;;;;;4785565;30;20063;-76
2022/11/12 05:18:40;;;;;;;12.30;4.18;;;;;;;;;;4783690;30;20063;-76
2022/11/12 05:24:40;;;;;;;9.68;3.83;;;;;;;;;;4785342;30;20078;-74
2022/11/12 05:27:29;;;;;;;8.77;4.35;;;;;;;;;;4782812;30;20060;-73
2022/11/12 05:30:17;;;;;;;8.68;4.30;;;;;;;;;;4786215;30;20048;-76
2022/11/12 05:33:05;;;;;;;9.40;4.28;;;;;;;;;;4784153;30;20063;-75
2022/11/12 05:35:56;;;;;;;9.30;4.88;;;;;;;;;;4781004;30;20047;-76
2022/11/12 05:38:44;;;;;;;6.82;3.70;;;;;;;;;;4785020;30;20440;-74
2022/11/12 05:41:33;;;;;;;9.88;4.70;;;;;;;;;;4783337;30;20059;-73
2022/11/12 05:44:41;;;;;;;7.07;4.50;;;;;;;;;;4786694;30;20052;-75
2022/11/12 05:47:29;;;;;;;6.38;3.90;;;;;;;;;;4784869;30;20052;-73
2022/11/12 05:50:17;;;;;;;6.57;4.00;;;;;;;;;;4781358;30;20055;-73
2022/11/12 05:53:05;;;;;;;6.53;4.50;;;;;;;;;;4785709;30;20059;-73
2022/11/12 05:55:59;;;;;;;7.70;4.22;;;;;;;;;;4785813;29;20059;-73
2022/11/12 05:58:48;;;;;;;8.23;4.05;;;;;;;;;;4785504;29;20051;-75
2022/11/12 06:01:42;;;;;;;5.20;3.90;;;;;;;;;;4788794;29;20419;-75
2022/11/12 06:04:31;;;;;;;8.70;4.68;;;;;;;;;;4786369;29;20047;-74
2022/11/12 06:07:19;;;;;;;7.22;4.32;;;;;;;;;;4784485;29;20059;-73
2022/11/12 06:10:08;;;;;;;8.27;4.28;;;;;;;;;;4788830;29;20063;-73
2022/11/12 06:13:02;;;;;;;5.82;4.15;;;;;;;;;;4786918;29;20055;-72
2022/11/12 06:15:51;;;;;;;7.60;4.45;;;;;;;;;;4789508;29;20063;-74
2022/11/12 06:18:39;;;;;;;6.95;4.20;;;;;;;;;;4787310;29;20427;-73
2022/11/12 06:21:27;;;;;;;8.18;4.15;;;;;;;;;;4785429;29;20055;-73
2022/11/12 06:24:16;;;;;;;7.70;3.97;;;;;;;;;;4789270;29;20530;-74
2022/11/12 06:27:05;;;;;;;6.75;4.47;;;;;;;;;;4786744;29;20059;-73
2022/11/12 06:29:53;;;;;;;8.77;4.68;;;;;;;;;;4785118;29;20055;-75
2022/11/12 06:32:41;;;;;;;7.60;4.78;;;;;;;;;;4789027;29;20499;-75
2022/11/12 06:35:30;;;;;;;8.10;4.47;;;;;;;;;;4787033;29;20047;-73
2022/11/12 06:38:18;;;;;;;7.07;4.90;;;;;;;;;;4785426;29;20055;-72
2022/11/12 06:41:09;;;;;;;7.93;4.63;;;;;;;;;;4788278;29;20059;-72
2022/11/12 06:43:57;;;;;;;6.15;4.35;;;;;;;;;;4786770;29;20059;-74
2022/11/12 06:46:45;;;;;;;7.47;4.55;;;;;;;;;;4784586;29;20063;-73
2022/11/12 06:49:33;;;;;;;7.35;4.35;;;;;;;;;;4787637;29;20428;-74
2022/11/12 06:52:22;;;;;;;9.35;5.32;;;;;;;;;;4785767;29;20059;-74
2022/11/12 06:55:11;;;;;;;7.65;5.30;;;;;;;;;;4783846;29;20555;-74
2022/11/12 06:57:59;;;;;;;6.25;4.68;;;;;;;;;;4787427;29;20451;-73
2022/11/12 07:00:48;;;;;;;8.85;5.50;;;;;;;;;;4785898;29;20047;-73
2022/11/12 07:03:37;;;;;;;7.53;5.85;;;;;;;;;;4783611;29;20496;-74
2022/11/12 07:06:25;;;;;;;7.50;5.03;;;;;;;;;;4786901;29;20048;-73
2022/11/12 07:09:13;;;;;;;6.60;5.07;;;;;;;;;;4785070;29;20055;-73
2022/11/12 07:12:01;;;;;;;10.70;5.47;;;;;;;;;;4783171;30;20073;-75
2022/11/12 07:14:51;;;;;;;7.35;4.85;;;;;;;;;;4787051;29;20488;-74
2022/11/12 07:17:39;;;;;;;9.50;5.63;;;;;;;;;;4785026;29;20059;-73
2022/11/12 07:20:27;;;;;;;7.65;5.10;;;;;;;;;;4788299;29;20059;-75
2022/11/12 07:23:16;;;;;;;7.07;4.55;;;;;;;;;;4786223;29;20051;-74
2022/11/12 07:26:07;;;;;;;11.57;4.70;;;;;;;;;;4784353;29;20051;-73
2022/11/12 07:28:58;;;;;;;9.50;4.63;;;;;;;;;;4787903;29;20047;-73
2022/11/12 07:31:47;;;;;;;6.53;5.03;;;;;;;;;;4786211;29;20055;-74
2022/11/12 07:34:35;;;;;;;6.78;4.32;;;;;;;;;;4782917;29;20055;-73
2022/11/12 07:37:23;;;;;;;5.45;3.88;;;;;;;;;;4787845;29;20055;-74
2022/11/12 07:40:11;;;;;;;;;;;;;;;;;;4783717;29;20055;-75
2022/11/12 07:42:59;;;;;;;8.60;4.10;;;;;;;;;;4784076;29;19925;-74
2022/11/12 07:45:48;;;;;;;9.38;5.00;;;;;;;;;;4786828;29;20055;-73
2022/11/12 07:48:38;;;;;;;15.30;5.57;;;;;;;;;;4783931;29;20055;-73
2022/11/12 07:51:28;;;;;;;8.75;4.68;;;;;;;;;;4782592;29;20051;-73
2022/11/12 07:54:16;;;;;;;7.75;4.72;;;;;;;;;;4786671;29;20055;-72
2022/11/12 07:57:04;;;;;;;;;;;;;;;;;;4785513;29;20051;-73
2022/11/12 07:59:52;;;;;;;7.60;4.57;;;;;;;;;;4782729;29;19929;-74
2022/11/12 08:02:41;;;;;;;7.90;5.25;;;;;;;;;;4786024;29;20442;-75
2022/11/12 08:05:29;;;;;;;8.45;5.15;;;;;;;;;;4784277;29;20500;-73
2022/11/12 08:08:17;;;;;;;7.78;4.80;;;;;;;;;;4782817;29;20059;-73
2022/11/12 08:11:06;;;;;;;7.88;4.60;;;;;;;;;;4784708;29;20411;-74
2022/11/12 08:13:53;;;;;;;7.93;5.00;;;;;;;;;;4784564;29;20051;-72
2022/11/12 08:16:42;;;;;;;7.10;4.75;;;;;;;;;;4782686;29;20051;-74
2022/11/12 08:19:30;;;;;;;6.35;4.90;;;;;;;;;;4784609;29;20052;-74
2022/11/12 08:22:18;;;;;;;7.22;4.70;;;;;;;;;;4783629;29;20059;-74
2022/11/12 08:25:07;;;;;;;6.25;4.15;;;;;;;;;;4787159;29;20433;-74
2022/11/12 08:27:57;;;;;;;7.10;5.03;;;;;;;;;;4783060;29;20059;-74
2022/11/12 08:30:45;;;;;;;7.85;4.60;;;;;;;;;;4783294;29;20416;-73
2022/11/12 08:33:34;;;;;;;7.40;4.53;;;;;;;;;;4787591;29;20158;-74
2022/11/12 08:36:22;;;;;;;7.75;5.07;;;;;;;;;;4786250;29;20048;-73
2022/11/12 08:39:11;;;;;;;11.75;4.90;;;;;;;;;;4782642;29;20059;-71
2022/11/12 08:41:59;;;;;;;5.85;4.45;;;;;;;;;;4786360;29;20055;-74
2022/11/12 08:44:48;;;;;;;8.90;5.63;;;;;;;;;;4784606;29;20059;-74
2022/11/12 08:47:36;;;;;;;7.00;5.00;;;;;;;;;;4783346;29;20507;-73
2022/11/12 08:50:25;;;;;;;10.65;6.18;;;;;;;;;;4785917;29;20055;-74
2022/11/12 08:53:14;;;;;;;8.35;5.22;;;;;;;;;;4781597;30;20063;-73
2022/11/12 08:56:02;;;;;;;9.40;5.20;;;;;;;;;;4782130;29;20059;-74
2022/11/12 08:58:50;;;;;;;11.02;5.22;;;;;;;;;;4785609;29;20075;-73
2022/11/12 09:01:39;;;;;;;7.65;5.03;;;;;;;;;;4783482;29;20047;-73
2022/11/12 09:04:27;;;;;;;8.07;5.38;;;;;;;;;;4781382;29;20059;-73
2022/11/12 09:07:17;;;;;;;7.65;5.05;;;;;;;;;;4785310;29;20052;-74
2022/11/12 09:10:26;;;;;;;8.55;5.28;;;;;;;;;;4783725;29;20051;-73
2022/11/12 09:13:16;;;;;;;10.43;5.30;;;;;;;;;;4787207;30;20404;-74
2022/11/12 09:16:06;;;;;;;8.93;6.32;;;;;;;;;;4787165;30;20051;-73
2022/11/12 09:18:59;;;;;;;6.18;4.57;;;;;;;;;;4782427;30;20055;-73
2022/11/12 09:21:47;;;;;;;8.65;5.93;;;;;;;;;;4785697;30;20519;-73
2022/11/12 09:24:35;;;;;;;6.47;4.63;;;;;;;;;;4784114;30;20082;-74
2022/11/12 09:27:26;;;;;;;8.50;6.05;;;;;;;;;;4782341;29;20059;-73
2022/11/12 09:30:15;;;;;;;8.68;6.10;;;;;;;;;;4786951;29;20059;-74
2022/11/12 09:33:04;;;;;;;8.98;5.93;;;;;;;;;;4786857;29;20055;-74
2022/11/12 09:35:54;;;;;;;10.35;5.78;;;;;;;;;;4790000;29;20504;-73
2022/11/12 09:38:42;;;;;;;10.98;5.60;;;;;;;;;;4787893;29;20774;-73
2022/11/12 09:41:40;;;;;;;9.63;6.32;;;;;;;;;;4785817;29;20059;-74
2022/11/12 09:44:30;;;;;;;7.47;5.15;;;;;;;;;;4788762;29;20059;-72
2022/11/12 09:47:29;;;;;;;8.60;5.13;;;;;;;;;;4786504;29;20051;-73
2022/11/12 09:50:20;;;;;;;8.35;5.00;;;;;;;;;;4784776;29;20554;-73
2022/11/12 09:53:16;;;;;;;8.20;6.03;;;;;;;;;;4788594;29;20055;-75
2022/11/12 09:56:12;;;;;;;8.70;5.18;;;;;;;;;;4786028;29;20498;-75
2022/11/12 09:59:00;;;;;;;6.95;4.85;;;;;;;;;;4789043;29;20407;-73
2022/11/12 10:02:22;;;;;;;6.25;5.32;;;;;;;;;;4787235;29;20048;-74
2022/11/12 10:05:30;;;;;;;8.52;5.10;;;;;;;;;;4789684;29;20051;-84
2022/11/12 10:08:39;;;;;;;9.48;6.25;;;;;;;;;;4787099;29;20505;-75
2022/11/12 10:18:45;;;;;;;9.40;4.97;;;;;;;;;;4786756;29;20051;-73
2022/11/12 10:21:54;;;;;;;7.82;5.35;;;;;;;;;;4793265;29;20054;-74
2022/11/12 10:24:44;;;;;;;6.00;4.95;;;;;;;;;;4805055;29;20054;-75
2022/11/12 10:27:39;;;;;;;6.70;4.75;;;;;;;;;;4802876;29;20055;-72
2022/11/12 10:30:27;;;;;;;6.18;5.22;;;;;;;;;;4806470;29;20059;-73
2022/11/12 10:33:16;;;;;;;9.60;4.90;;;;;;;;;;4804489;29;20058;-73
2022/11/12 10:36:34;;;;;;;7.75;4.95;;;;;;;;;;4802338;29;20063;-77
2022/11/12 10:39:36;;;;;;;;;;;;;;;;;;4802852;29;20058;-74
2022/11/12 10:42:24;;;;;;;11.18;5.90;;;;;;;;;;4799654;29;19925;-73
2022/11/12 10:45:21;;;;;;;8.30;4.65;;;;;;;;;;4803436;29;20051;-77
2022/11/12 10:48:32;;;;;;;5.53;4.28;;;;;;;;;;4801324;29;20055;-72
2022/11/12 10:51:26;;;;;;;;;;;;;;;;;;4800178;29;20063;-74
2022/11/12 10:54:38;;;;;;;6.22;4.60;;;;;;;;;;4802817;29;19929;-76
2022/11/12 10:57:27;;;;;;;6.75;4.68;;;;;;;;;;4805465;29;20054;-74
2022/11/12 11:00:18;;;;;;;9.13;5.13;;;;;;;;;;4803855;29;20058;-75
2022/11/12 11:03:20;;;;;;;4.63;3.85;;;;;;;;;;4801668;29;20047;-74
2022/11/12 11:06:15;;;;;;;9.40;7.93;;;;;;;;;;4804779;29;20055;-74
2022/11/12 11:09:12;;;;;;;10.05;5.22;;;;;;;;;;4803134;29;20047;-73
2022/11/12 11:12:01;;;;;;;7.25;4.53;;;;;;;;;;4805420;29;20113;-75
2022/11/12 11:15:17;;;;;;;8.25;4.95;;;;;;;;;;4804131;29;20062;-75
2022/11/12 11:18:07;;;;;;;7.10;4.10;;;;;;;;;;4806118;29;20063;-75
2022/11/12 11:21:01;;;;;;;8.27;4.05;;;;;;;;;;4803846;29;21225;-73
2022/11/12 11:23:57;;;;;;;6.30;3.67;;;;;;;;;;4802905;29;20055;-74
2022/11/12 11:27:23;;;;;;;9.32;4.72;;;;;;;;;;4804965;29;20046;-73
2022/11/12 11:30:14;;;;;;;5.10;4.13;;;;;;;;;;4801752;29;20051;-74
2022/11/12 11:33:17;;;;;;;4.82;3.78;;;;;;;;;;4805041;29;20422;-76
2022/11/12 11:36:17;;;;;;;4.78;4.15;;;;;;;;;;4802175;29;20050;-75
2022/11/12 11:39:36;;;;;;;6.35;3.90;;;;;;;;;;4803974;29;20058;-77
2022/11/12 11:42:42;;;;;;;5.80;4.00;;;;;;;;;;4802647;29;20058;-75
2022/11/12 11:46:08;;;;;;;5.88;4.22;;;;;;;;;;4804962;29;20055;-75
2022/11/12 11:49:20;;;;;;;6.35;4.25;;;;;;;;;;4799280;29;20059;-76
2022/11/12 11:52:45;;;;;;;9.45;4.25;;;;;;;;;;4803321;29;21077;-75
2022/11/12 11:55:53;;;;;;;29.13;7.03;;;;;;;;;;4805240;29;20428;-76
2022/11/12 11:59:02;;;;;;;9.23;4.88;;;;;;;;;;4802582;29;20050;-74
2022/11/12 12:02:02;;;;;;;6.50;4.22;;;;;;;;;;4805210;29;20479;-76
2022/11/12 12:05:12;;;;;;;7.78;3.90;;;;;;;;;;4803198;29;20043;-77
2022/11/12 12:08:18;;;;;;;4.57;3.83;;;;;;;;;;4805406;29;20054;-74
2022/11/12 12:11:15;;;;;;;4.55;3.70;;;;;;;;;;4802292;29;20522;-74
2022/11/12 12:14:26;;;;;;;4.68;3.65;;;;;;;;;;4799721;29;20419;-77
2022/11/12 12:17:45;;;;;;;16.05;5.55;;;;;;;;;;4803115;29;20051;-74
2022/11/12 12:21:04;;;;;;;6.90;3.67;;;;;;;;;;4804905;29;20407;-76
2022/11/12 12:24:16;;;;;;;6.32;2.95;;;;;;;;;;4802507;29;20043;-75
2022/11/12 12:27:20;;;;;;;5.03;3.70;;;;;;;;;;4803108;29;20626;-76
2022/11/12 12:30:22;;;;;;;5.80;3.90;;;;;;;;;;4806426;29;20059;-74
2022/11/12 12:33:28;;;;;;;4.15;3.00;;;;;;;;;;4807497;29;20063;-78
2022/11/12 12:36:48;;;;;;;2.97;2.60;;;;;;;;;;4801026;29;20051;-74
2022/11/12 12:39:51;;;;;;;5.88;3.47;;;;;;;;;;4799950;29;20063;-73
2022/11/12 12:43:00;;;;;;;5.35;2.88;;;;;;;;;;4802016;29;20123;-76
2022/11/12 12:45:48;;;;;;;5.38;3.55;;;;;;;;;;4803821;29;20503;-78
2022/11/12 12:48:42;;;;;;;4.35;3.15;;;;;;;;;;4802114;29;20054;-78
2022/11/12 12:51:32;;;;;;;4.93;3.00;;;;;;;;;;4799929;29;20055;-74
2022/11/12 12:54:38;;;;;;;3.50;2.58;;;;;;;;;;4804170;29;20372;-76
2022/11/12 12:57:36;;;;;;;4.05;2.67;;;;;;;;;;4801904;29;20055;-72
2022/11/12 13:00:33;;;;;;;3.75;2.90;;;;;;;;;;4804561;29;20082;-73
2022/11/12 13:03:40;;;;;;;6.30;4.10;;;;;;;;;;4801365;29;20051;-75
2022/11/12 13:06:31;;;;;;;5.70;2.88;;;;;;;;;;4803945;29;20051;-76
2022/11/12 13:09:24;;;;;;;6.15;2.58;;;;;;;;;;4802294;29;20058;-76
2022/11/12 13:15:12;;;;;;;5.22;2.67;;;;;;;;;;4797958;29;20042;-77
2022/11/12 13:18:00;;;;;;;3.03;2.70;;;;;;;;;;4795537;29;20059;-74
2022/11/12 13:21:19;;;;;;;3.72;2.85;;;;;;;;;;4793526;29;20059;-78
2022/11/12 13:24:12;;;;;;;3.30;2.80;;;;;;;;;;4795667;29;20059;-76
2022/11/12 13:27:01;;;;;;;5.38;2.60;;;;;;;;;;4795879;29;20055;-77
2022/11/12 13:29:51;;;;;;;5.10;2.88;;;;;;;;;;4799141;29;20046;-74
2022/11/12 13:32:46;;;;;;;3.75;2.60;;;;;;;;;;4798630;29;20059;-76
2022/11/12 13:35:36;;;;;;;4.82;2.75;;;;;;;;;;4801805;29;20051;-75
2022/11/12 13:38:30;;;;;;;3.25;2.70;;;;;;;;;;4798880;29;20055;-74
2022/11/12 13:44:48;;;;;;;3.17;2.42;;;;;;;;;;4805087;29;20067;-74
2022/11/12 13:47:42;;;;;;;4.65;2.92;;;;;;;;;;4798577;29;20051;-72
2022/11/12 13:50:31;;;;;;;7.20;2.75;;;;;;;;;;4803211;29;20055;-74
2022/11/12 13:53:29;;;;;;;3.08;2.60;;;;;;;;;;4798303;29;20069;-74
2022/11/12 13:56:33;;;;;;;3.75;2.63;;;;;;;;;;4801672;29;20082;-73
2022/11/12 13:59:24;;;;;;;3.75;2.72;;;;;;;;;;4799491;29;20503;-77
2022/11/12 14:02:26;;;;;;;3.65;2.78;;;;;;;;;;4798337;29;20051;-75
2022/11/12 14:05:19;;;;;;;3.30;2.55;;;;;;;;;;4800392;29;20051;-73
2022/11/12 14:08:31;;;;;;;8.27;3.30;;;;;;;;;;4798617;29;20055;-74
2022/11/12 14:11:43;;;;;;;3.10;2.80;;;;;;;;;;4796174;29;20054;-74
2022/11/12 14:15:04;;;;;;;5.78;2.42;;;;;;;;;;4796700;29;20055;-73
2022/11/12 14:18:13;;;;;;;4.40;2.83;;;;;;;;;;4799538;29;20058;-76
2022/11/12 14:21:10;;;;;;;3.80;2.45;;;;;;;;;;4799203;29;20063;-78
2022/11/12 14:24:02;;;;;;;4.82;3.05;;;;;;;;;;4803344;29;20411;-77
2022/11/12 14:26:52;;;;;;;4.38;3.58;;;;;;;;;;4801294;29;20047;-74
2022/11/12 14:29:42;;;;;;;3.05;2.50;;;;;;;;;;4804922;29;20063;-75
2022/11/12 14:32:35;;;;;;;4.47;2.78;;;;;;;;;;4802529;29;20507;-76
2022/11/12 14:35:28;;;;;;;;;;;;;;;;;;4800841;29;20485;-74
2022/11/12 14:38:28;;;;;;;6.63;2.80;;;;;;;;;;4804126;29;19925;-76
2022/11/12 14:41:23;;;;;;;2.85;2.53;;;;;;;;;;4802083;29;20047;-74
2022/11/12 14:44:22;;;;;;;3.72;2.40;;;;;;;;;;4805241;29;20066;-80
2022/11/12 14:47:10;;;;;;;4.43;3.13;;;;;;;;;;4802157;29;20055;-79
2022/11/12 14:49:59;;;;;;;6.95;2.50;;;;;;;;;;4800479;29;20508;-75
2022/11/12 14:52:51;;;;;;;4.03;2.55;;;;;;;;;;4804326;29;20055;-77
2022/11/12 14:55:43;;;;;;;8.25;4.07;;;;;;;;;;4801478;29;20051;-78
2022/11/12 14:58:32;;;;;;;3.38;2.60;;;;;;;;;;4804841;29;20050;-73
2022/11/12 15:01:31;;;;;;;2.88;2.03;;;;;;;;;;4802955;29;20058;-72
2022/11/12 15:04:57;;;;;;;5.03;2.38;;;;;;;;;;4799878;29;20058;-73
2022/11/12 15:08:10;;;;;;;4.45;2.88;;;;;;;;;;4805000;29;20058;-73
2022/11/12 15:11:14;;;;;;;3.08;2.50;;;;;;;;;;4801716;29;20419;-75
2022/11/12 15:14:23;;;;;;;4.50;2.78;;;;;;;;;;4804573;29;20524;-73
2022/11/12 15:17:23;;;;;;;2.63;2.35;;;;;;;;;;4800792;29;20518;-74
2022/11/12 15:20:18;;;;;;;3.22;2.65;;;;;;;;;;4788797;29;20503;-79
2022/11/12 15:23:21;;;;;;;3.17;2.22;;;;;;;;;;4784312;29;20529;-75
2022/11/12 15:26:21;;;;;;;4.55;2.80;;;;;;;;;;4787754;29;20504;-74
2022/11/12 15:29:10;;;;;;;2.40;2.15;;;;;;;;;;4783018;29;20063;-75
2022/11/12 15:32:24;;;;;;;4.03;2.40;;;;;;;;;;4779677;29;20055;-75
2022/11/12 15:35:24;;;;;;;3.83;2.60;;;;;;;;;;4782409;30;20051;-76
2022/11/12 15:38:30;;;;;;;3.33;2.45;;;;;;;;;;4782653;29;20055;-75
2022/11/12 15:41:27;;;;;;;2.90;2.58;;;;;;;;;;4785693;29;20055;-74
2022/11/12 15:44:16;;;;;;;3.15;2.50;;;;;;;;;;4782899;29;20480;-74
2022/11/12 15:47:04;;;;;;;5.10;3.65;;;;;;;;;;4787067;29;20063;-74
2022/11/12 15:49:55;;;;;;;4.90;2.97;;;;;;;;;;4785757;29;20051;-74
2022/11/12 15:52:44;;;;;;;7.68;4.95;;;;;;;;;;4783631;29;20515;-75
2022/11/12 15:55:34;;;;;;;21.83;15.95;;;;;;;;;;4797752;29;20043;-77
2022/11/12 15:58:33;;;;;;;6.88;4.70;;;;;;;;;;4795565;29;20047;-73
2022/11/12 16:01:22;;;;;;;5.80;3.75;;;;;;;;;;4787283;29;20059;-73
2022/11/12 16:04:13;;;;;;;5.72;2.83;;;;;;;;;;4785301;29;20056;-73
2022/11/12 16:07:05;;;;;;;4.60;2.70;;;;;;;;;;4783596;29;20403;-73
2022/11/12 16:09:53;;;;;;;5.03;2.72;;;;;;;;;;4787284;29;20067;-72
2022/11/12 16:12:43;;;;;;;4.95;2.50;;;;;;;;;;4784758;29;20059;-75
2022/11/12 16:15:32;;;;;;;3.35;2.67;;;;;;;;;;4783196;29;20047;-76
2022/11/12 16:18:20;;;;;;;4.57;2.53;;;;;;;;;;4785789;29;20063;-73
2022/11/12 16:21:09;;;;;;;3.53;2.70;;;;;;;;;;4784902;29;20043;-73
2022/11/12 16:23:57;;;;;;;5.35;2.60;;;;;;;;;;4781340;29;20063;-74
2022/11/12 16:26:45;;;;;;;3.65;2.50;;;;;;;;;;4786391;29;20055;-74
2022/11/12 16:29:35;;;;;;;5.68;2.80;;;;;;;;;;4782620;30;20059;-74
2022/11/12 16:32:22;;;;;;;3.90;2.53;;;;;;;;;;4781977;29;20051;-74
2022/11/12 16:35:11;;;;;;;9.35;2.72;;;;;;;;;;4785579;29;20063;-74
2022/11/12 16:37:58;;;;;;;2.85;2.35;;;;;;;;;;4783803;29;20067;-77
2022/11/12 16:40:47;;;;;;;4.28;2.60;;;;;;;;;;4782996;30;20055;-76
2022/11/12 16:43:35;;;;;;;4.45;2.80;;;;;;;;;;4786180;29;20051;-75
2022/11/12 16:46:34;;;;;;;6.97;2.70;;;;;;;;;;4783916;29;20047;-76
2022/11/12 16:49:23;;;;;;;;;;;;;;;;;;4787389;29;20051;-73
2022/11/12 16:52:11;;;;;;;4.50;2.85;;;;;;;;;;4783526;29;19926;-71
2022/11/12 16:55:00;;;;;;;4.90;2.55;;;;;;;;;;4783294;29;20528;-74
2022/11/12 16:57:51;;;;;;;4.95;2.70;;;;;;;;;;4786322;29;20915;-72
2022/11/12 17:00:48;;;;;;;5.30;3.10;;;;;;;;;;4783778;29;20424;-74
2022/11/12 17:03:37;;;;;;;3.20;2.90;;;;;;;;;;4781577;29;20047;-73
2022/11/12 17:06:46;;;;;;;3.40;2.78;;;;;;;;;;4785331;29;20055;-73
2022/11/12 17:09:34;;;;;;;3.63;2.70;;;;;;;;;;4782096;29;20501;-74
2022/11/12 17:12:23;;;;;;;3.55;2.70;;;;;;;;;;4785710;29;20051;-72
2022/11/12 17:15:11;;;;;;;5.35;2.90;;;;;;;;;;4783878;30;20056;-72
2022/11/12 17:17:59;;;;;;;4.38;2.50;;;;;;;;;;4782259;30;20051;-75
2022/11/12 17:20:48;;;;;;;4.78;2.67;;;;;;;;;;4785855;30;20071;-71
2022/11/12 17:23:38;;;;;;;2.90;2.60;;;;;;;;;;4784414;30;20499;-72
2022/11/12 17:26:28;;;;;;;4.15;2.60;;;;;;;;;;4781826;30;20063;-73
2022/11/12 17:29:16;;;;;;;5.25;2.88;;;;;;;;;;4785279;30;20520;-74
2022/11/12 17:32:07;;;;;;;5.75;2.70;;;;;;;;;;4783113;30;21139;-72
2022/11/12 17:35:15;;;;;;;5.63;2.63;;;;;;;;;;4782274;30;20059;-77
2022/11/12 17:38:16;;;;;;;3.63;2.58;;;;;;;;;;4784901;30;20059;-74
2022/11/12 17:41:06;;;;;;;4.35;2.40;;;;;;;;;;4781269;30;20055;-75
2022/11/12 17:43:57;;;;;;;4.70;2.50;;;;;;;;;;4785201;30;20445;-78
2022/11/12 17:46:47;;;;;;;5.55;2.90;;;;;;;;;;4782594;30;20047;-76
2022/11/12 17:49:35;;;;;;;7.95;3.10;;;;;;;;;;4781193;29;20484;-76
2022/11/12 17:52:23;;;;;;;2.70;2.50;;;;;;;;;;4787067;29;20055;-77